Time;durP1;ratioP1;P1;durP2;ratioP2;P2;SDS_P1;SDS_P2;PMS_P1;PMS_P2;Temp;Humidity;BMP_temperature;BMP_pressure;BME280_temperature;BME280_humidity;BME280_pressure;Samples;Min_cycle;Max_cycle;Signal;HPM_P1;HPM_P2
2021/05/21 00:00:52;;;;;;;1.20;1.00;;;;;;;16.32;70.86;97924.47;5005344;28;20224;-69
2021/05/21 00:03:19;;;;;;;1.20;0.80;;;;;;;16.44;69.74;97923.41;5005171;28;20223;-70
2021/05/21 00:05:46;;;;;;;0.93;0.80;;;;;;;16.04;72.18;97921.72;5015323;28;20295;-72
2021/05/21 00:08:13;;;;;;;1.20;0.90;;;;;;;16.04;71.25;97921.72;5013234;28;20208;-70
2021/05/21 00:10:39;;;;;;;0.83;0.70;;;;;;;16.36;69.40;97915.66;5009471;28;20217;-71
2021/05/21 00:13:06;;;;;;;1.37;0.90;;;;;;;16.37;68.98;97924.56;5011386;28;20223;-72
2021/05/21 00:15:34;;;;;;;1.50;1.17;;;;;;;16.47;68.32;97916.72;5003601;28;20209;-71
2021/05/21 00:18:01;;;;;;;1.97;0.97;;;;;;;16.43;68.39;97910.16;5008498;28;20200;-70
2021/05/21 00:20:28;;;;;;;2.70;1.10;;;;;;;16.40;67.46;97911.47;5007062;28;20226;-72
2021/05/21 00:22:54;;;;;;;1.57;1.00;;;;;;;15.81;70.33;97906.41;5009743;28;20225;-69
2021/05/21 00:25:21;;;;;;;1.80;1.10;;;;;;;16.42;67.20;97911.22;5006906;28;20205;-67
2021/05/21 00:27:48;;;;;;;1.97;1.07;;;;;;;16.59;66.56;97906.69;5007173;28;20214;-69
2021/05/21 00:30:16;;;;;;;1.73;1.00;;;;;;;16.44;68.61;97885.69;5001373;28;20272;-71
2021/05/21 00:32:43;;;;;;;1.50;1.10;;;;;;;16.36;67.66;97888.72;5009739;28;20227;-71
2021/05/21 00:35:11;;;;;;;0.80;0.80;;;;;;;16.20;68.64;97884.09;5016450;28;20210;-70
2021/05/21 00:37:38;;;;;;;1.37;0.90;;;;;;;16.52;66.23;97881.78;5017017;28;20209;-70
2021/05/21 00:40:06;;;;;;;2.67;1.23;;;;;;;16.13;67.83;97882.59;5009121;28;20565;-69
2021/05/21 00:42:33;;;;;;;2.67;1.00;;;;;;;16.44;68.18;97876.78;5012230;28;20254;-71
2021/05/21 00:45:00;;;;;;;4.30;1.10;;;;;;;16.39;66.83;97899.06;5008460;28;20272;-71
2021/05/21 00:47:29;;;;;;;1.50;0.90;;;;;;;16.34;67.12;97881.94;5016159;28;20209;-71
2021/05/21 00:49:57;;;;;;;1.57;0.90;;;;;;;16.24;67.90;97877.19;5006885;28;20381;-71
2021/05/21 00:52:24;;;;;;;1.80;1.00;;;;;;;16.37;67.37;97876.09;5014935;28;20229;-70
2021/05/21 00:54:51;;;;;;;1.13;0.90;;;;;;;16.30;68.57;97864.63;5014569;28;20210;-71
2021/05/21 00:57:18;;;;;;;1.27;0.90;;;;;;;16.44;68.30;97842.59;5014681;28;20657;-70
2021/05/21 00:59:45;;;;;;;1.57;1.10;;;;;;;16.03;68.75;97850.91;5010888;28;20656;-71
2021/05/21 01:02:12;;;;;;;1.27;1.00;;;;;;;15.96;69.10;97844.84;5016066;28;20320;-69
2021/05/21 01:04:39;;;;;;;1.23;0.80;;;;;;;16.26;67.34;97856.22;5016018;28;20586;-70
2021/05/21 01:07:07;;;;;;;1.17;0.90;;;;;;;16.33;67.74;97843.44;5010392;28;20221;-69
2021/05/21 01:09:34;;;;;;;1.90;1.00;;;;;;;16.36;66.15;97831.34;5014732;28;20210;-68
2021/05/21 01:12:01;;;;;;;1.80;0.93;;;;;;;16.51;65.81;97818.19;5012773;28;20202;-71
2021/05/21 01:14:28;;;;;;;1.07;0.90;;;;;;;16.31;65.53;97807.81;5012451;28;20220;-72
2021/05/21 01:16:55;;;;;;;1.07;0.80;;;;;;;16.49;65.33;97826.53;5016640;28;20207;-71
2021/05/21 01:19:22;;;;;;;1.83;1.00;;;;;;;16.52;65.56;97838.69;5013841;28;20206;-71
2021/05/21 01:21:50;;;;;;;1.17;1.03;;;;;;;16.25;67.43;97826.81;5012030;28;20234;-70
2021/05/21 01:24:17;;;;;;;2.37;1.03;;;;;;;16.34;66.83;97831.59;5004323;28;20213;-71
2021/05/21 01:26:45;;;;;;;1.10;0.87;;;;;;;16.26;66.90;97834.66;5010418;28;20728;-71
2021/05/21 01:29:12;;;;;;;1.13;0.80;;;;;;;16.33;67.09;97829.13;5011379;28;20205;-71
2021/05/21 01:31:43;;;;;;;2.57;1.00;;;;;;;15.83;69.36;97817.38;5010860;28;20314;-70
2021/05/21 01:34:10;;;;;;;1.03;0.90;;;;;;;16.07;68.16;97835.09;5003856;28;20312;-71
2021/05/21 01:36:37;;;;;;;0.90;0.90;;;;;;;15.80;68.68;97815.19;5010401;28;20578;-71
2021/05/21 01:39:09;;;;;;;0.80;0.60;;;;;;;16.20;67.03;97816.78;5006105;28;20209;-70
2021/05/21 01:41:37;;;;;;;0.80;0.80;;;;;;;16.30;66.77;97808.06;5011063;28;20234;-71
2021/05/21 01:44:06;;;;;;;1.00;0.80;;;;;;;16.06;67.31;97804.66;5007078;28;20245;-70
2021/05/21 01:46:33;;;;;;;1.20;1.00;;;;;;;16.26;66.64;97806.94;5006739;28;20208;-70
2021/05/21 01:49:00;;;;;;;1.77;0.90;;;;;;;16.20;67.01;97806.00;5012912;28;20210;-70
2021/05/21 01:51:27;;;;;;;1.37;0.73;;;;;;;16.13;66.85;97799.13;5011769;28;20868;-70
2021/05/21 01:56:54;;;;;;;1.33;0.80;;;;;;;16.11;67.30;97798.56;5130059;27;20897;-69
2021/05/21 01:59:22;;;;;;;2.27;0.70;;;;;;;16.07;67.68;97792.84;5129692;27;20203;-70
2021/05/21 02:01:49;;;;;;;1.30;0.80;;;;;;;16.27;66.89;97792.41;5129716;27;20792;-71
2021/05/21 02:04:16;;;;;;;1.87;1.00;;;;;;;16.26;66.91;97793.47;5124503;28;20266;-69
2021/05/21 02:06:43;;;;;;;1.80;0.90;;;;;;;16.08;67.71;97775.66;5126843;27;20213;-70
2021/05/21 02:09:11;;;;;;;1.17;0.70;;;;;;;16.08;68.01;97783.72;5130007;27;20201;-70
2021/05/21 02:11:38;;;;;;;1.50;0.80;;;;;;;15.88;68.06;97777.94;5132360;27;20202;-71
2021/05/21 02:14:06;;;;;;;2.03;0.80;;;;;;;16.20;66.95;97783.66;5130204;27;20216;-71
2021/05/21 02:16:33;;;;;;;0.87;0.77;;;;;;;16.22;67.19;97774.25;5128709;27;20229;-70
2021/05/21 02:19:00;;;;;;;3.50;1.00;;;;;;;15.97;68.17;97773.00;5130995;27;20208;-71
2021/05/21 02:21:31;;;;;;;1.43;0.80;;;;;;;16.22;67.01;97771.56;5128780;27;20292;-70
2021/05/21 02:24:00;;;;;;;1.27;1.10;;;;;;;15.84;68.92;97757.13;5127751;27;20321;-69
2021/05/21 02:26:26;;;;;;;2.37;0.73;;;;;;;15.78;68.81;97748.16;5128180;27;20195;-68
2021/05/21 02:28:53;;;;;;;1.07;0.70;;;;;;;15.51;70.68;97755.13;5127931;27;20288;-71
2021/05/21 02:31:21;;;;;;;2.43;0.80;;;;;;;15.87;69.76;97756.66;5127722;27;20677;-69
2021/05/21 02:33:48;;;;;;;0.67;0.67;;;;;;;15.91;69.00;97755.13;5127005;27;20224;-70
2021/05/21 02:36:15;;;;;;;1.47;0.80;;;;;;;15.78;69.67;97750.00;5128226;27;20593;-69
2021/05/21 02:38:41;;;;;;;2.63;1.00;;;;;;;16.00;68.69;97749.09;5131053;27;20207;-70
2021/05/21 02:41:08;;;;;;;1.37;0.80;;;;;;;16.22;66.97;97739.25;5130703;27;20729;-70
2021/05/21 02:43:35;;;;;;;1.50;1.00;;;;;;;15.83;69.49;97734.78;5127769;27;21444;-70
2021/05/21 02:46:02;;;;;;;1.23;0.80;;;;;;;15.82;69.43;97735.03;5127982;27;20590;-70
2021/05/21 02:48:29;;;;;;;1.30;0.90;;;;;;;15.72;71.58;97724.06;5126742;27;20202;-70
2021/05/21 02:50:56;;;;;;;1.17;0.77;;;;;;;16.03;68.54;97723.56;5123880;27;20243;-70
2021/05/21 02:53:23;;;;;;;3.60;0.67;;;;;;;16.12;68.27;97730.22;5120190;27;20225;-70
2021/05/21 02:55:50;;;;;;;1.17;0.77;;;;;;;15.97;68.88;97725.38;5127066;27;20225;-71
2021/05/21 02:58:17;;;;;;;4.17;1.90;;;;;;;15.74;69.50;97724.63;5128275;27;20205;-71
2021/05/21 03:00:44;;;;;;;1.83;0.90;;;;;;;15.68;70.48;97721.06;5126916;27;20207;-69
2021/05/21 03:03:11;;;;;;;1.10;0.80;;;;;;;15.67;70.16;97722.13;5126075;27;20306;-71
2021/05/21 03:05:39;;;;;;;1.13;0.90;;;;;;;15.60;70.55;97715.25;5125939;27;20566;-71
2021/05/21 03:08:05;;;;;;;3.10;0.80;;;;;;;15.86;69.79;97720.03;5113132;28;20202;-69
2021/05/21 03:10:32;;;;;;;1.03;0.77;;;;;;;15.69;69.59;97720.00;5113587;28;20206;-71
2021/05/21 03:12:59;;;;;;;1.27;0.90;;;;;;;15.75;69.40;97710.16;5111039;28;20243;-71
2021/05/21 03:15:28;;;;;;;2.30;0.93;;;;;;;15.91;68.71;97706.69;5111350;28;20231;-70
2021/05/21 03:17:55;;;;;;;0.87;0.70;;;;;;;15.94;68.54;97700.78;5113620;27;20307;-70
2021/05/21 03:20:22;;;;;;;1.23;0.90;;;;;;;15.60;71.67;97693.72;5113535;28;20641;-70
2021/05/21 03:22:49;;;;;;;3.03;0.73;;;;;;;15.69;70.43;97682.31;5113066;28;20228;-71
2021/05/21 03:25:16;;;;;;;1.77;1.00;;;;;;;15.77;69.39;97687.34;5108042;27;20800;-70
2021/05/21 03:27:43;;;;;;;1.07;0.70;;;;;;;15.44;71.22;97670.25;5109818;28;20210;-70
2021/05/21 03:30:11;;;;;;;1.27;0.80;;;;;;;15.63;70.39;97671.69;5113265;28;20199;-70
2021/05/21 03:32:39;;;;;;;2.83;0.80;;;;;;;15.83;69.44;97661.31;5111900;28;20779;-71
2021/05/21 03:35:07;;;;;;;2.37;1.00;;;;;;;15.40;72.71;97666.44;5106137;28;20230;-69
2021/05/21 03:37:34;;;;;;;1.27;0.80;;;;;;;15.77;69.55;97667.66;5113699;28;20335;-69
2021/05/21 03:40:01;;;;;;;1.83;0.90;;;;;;;15.79;69.45;97671.75;5107503;28;20307;-69
2021/05/21 03:42:28;;;;;;;1.83;0.70;;;;;;;15.79;69.40;97661.00;5111805;28;20231;-67
2021/05/21 03:44:55;;;;;;;2.10;0.87;;;;;;;15.74;69.27;97668.97;5112658;28;20253;-69
2021/05/21 03:47:24;;;;;;;1.90;0.80;;;;;;;15.41;72.48;97668.84;5113584;28;20310;-70
2021/05/21 03:49:51;;;;;;;6.83;1.13;;;;;;;15.80;68.94;97668.00;5112673;28;20296;-69
2021/05/21 03:52:18;;;;;;;2.27;0.80;;;;;;;15.49;71.67;97665.81;5113396;28;20226;-69
2021/05/21 03:54:45;;;;;;;1.17;0.67;;;;;;;15.52;71.13;97665.34;5107397;27;20982;-69
2021/05/21 03:57:13;;;;;;;1.53;0.73;;;;;;;15.55;70.12;97672.91;5112212;27;20201;-70
2021/05/21 03:59:39;;;;;;;1.13;0.80;;;;;;;15.69;69.16;97674.25;5113658;28;20200;-70
2021/05/21 04:02:06;;;;;;;2.57;0.80;;;;;;;15.73;68.59;97669.19;5113328;27;20276;-70
2021/05/21 04:04:33;;;;;;;1.23;0.60;;;;;;;15.69;68.02;97662.66;5110085;27;20205;-69
2021/05/21 04:07:00;;;;;;;1.73;0.80;;;;;;;15.95;67.64;97668.25;5113600;28;20566;-70
2021/05/21 04:09:27;;;;;;;1.37;0.77;;;;;;;15.91;67.39;97667.13;5112361;27;20197;-70
2021/05/21 04:11:53;;;;;;;2.77;0.93;;;;;;;15.96;67.18;97661.03;5113326;27;20602;-69
2021/05/21 04:14:21;;;;;;;1.30;1.00;;;;;;;16.06;66.87;97653.91;5112550;28;20197;-71
2021/05/21 04:16:48;;;;;;;2.57;0.83;;;;;;;15.92;68.58;97646.41;5120032;27;20232;-77
2021/05/21 04:19:15;;;;;;;2.27;0.80;;;;;;;16.07;67.93;97642.13;5113072;28;20225;-74
2021/05/21 04:21:41;;;;;;;0.90;0.70;;;;;;;16.06;66.28;97643.16;5116221;27;20206;-69
2021/05/21 04:24:09;;;;;;;3.27;0.60;;;;;;;15.93;66.82;97639.97;5113718;27;20228;-70
2021/05/21 04:26:37;;;;;;;1.00;0.67;;;;;;;16.10;65.99;97635.38;5114519;27;20664;-75
2021/05/21 04:29:04;;;;;;;0.40;0.40;;;;;;;15.76;68.19;97634.56;5108403;28;20198;-68
2021/05/21 04:31:32;;;;;;;1.17;0.60;;;;;;;16.12;64.65;97639.47;5111400;28;20205;-73
2021/05/21 04:33:58;;;;;;;2.57;0.73;;;;;;;16.32;63.98;97636.31;5113778;27;20227;-69
2021/05/21 04:36:25;;;;;;;2.97;0.67;;;;;;;16.48;62.42;97636.31;5112626;28;20234;-68
2021/05/21 04:38:52;;;;;;;0.83;0.60;;;;;;;16.60;62.17;97645.13;5113304;28;20206;-74
2021/05/21 04:41:19;;;;;;;2.77;1.00;;;;;;;16.57;61.74;97642.91;5113272;27;20251;-76
2021/05/21 04:43:46;;;;;;;2.23;0.60;;;;;;;16.79;60.82;97637.56;5113791;28;20227;-73
2021/05/21 04:46:13;;;;;;;1.27;0.63;;;;;;;16.86;61.56;97638.19;5108809;22;20372;-74
2021/05/21 04:48:41;;;;;;;2.10;0.70;;;;;;;16.94;60.65;97638.59;5013191;28;20303;-74
2021/05/21 04:51:08;;;;;;;0.60;0.50;;;;;;;17.15;59.19;97643.16;5015140;28;20213;-74
2021/05/21 04:53:35;;;;;;;2.00;0.70;;;;;;;16.93;58.98;97642.31;5014622;28;20207;-74
2021/05/21 04:56:02;;;;;;;1.27;0.60;;;;;;;17.42;57.53;97637.88;5009245;28;20225;-75
2021/05/21 04:58:28;;;;;;;1.33;0.60;;;;;;;16.57;60.03;97631.34;5014481;28;20225;-74
2021/05/21 05:00:55;;;;;;;0.93;0.50;;;;;;;17.27;56.12;97629.56;5017333;28;20290;-78
2021/05/21 05:03:22;;;;;;;0.53;0.47;;;;;;;17.54;55.81;97628.56;5014983;28;20245;-74
2021/05/21 05:05:50;;;;;;;0.97;0.53;;;;;;;17.74;55.41;97628.72;5015074;28;20669;-74
2021/05/21 05:08:17;;;;;;;1.23;0.50;;;;;;;17.38;57.07;97624.00;5011965;28;20702;-74
2021/05/21 05:10:45;;;;;;;2.13;0.53;;;;;;;17.17;57.91;97622.16;5012626;28;20204;-74
2021/05/21 05:13:12;;;;;;;0.70;0.50;;;;;;;17.30;55.77;97621.78;5013639;28;20207;-75
2021/05/21 05:15:39;;;;;;;5.40;0.77;;;;;;;17.36;55.00;97614.53;5012259;28;20317;-75
2021/05/21 05:18:06;;;;;;;3.60;0.70;;;;;;;17.69;53.79;97611.69;5014103;28;20650;-74
2021/05/21 05:20:33;;;;;;;0.63;0.47;;;;;;;17.82;53.23;97616.66;5012050;28;20242;-74
2021/05/21 05:23:01;;;;;;;1.47;0.70;;;;;;;17.77;52.58;97606.66;5010114;28;20697;-73
2021/05/21 05:25:28;;;;;;;1.93;0.70;;;;;;;18.17;51.26;97608.88;5010494;28;20204;-74
2021/05/21 05:27:56;;;;;;;4.10;0.80;;;;;;;17.81;52.84;97601.53;5020861;28;20285;-75
2021/05/21 05:30:23;;;;;;;1.30;0.60;;;;;;;18.60;49.69;97597.88;5012053;28;20210;-74
2021/05/21 05:32:50;;;;;;;2.93;0.53;;;;;;;18.12;51.02;97595.31;5017740;28;20290;-74
2021/05/21 05:35:17;;;;;;;0.80;0.70;;;;;;;18.47;50.51;97598.31;5012356;28;20585;-74
2021/05/21 05:37:44;;;;;;;1.10;0.70;;;;;;;18.46;49.02;97604.78;5013530;28;20374;-77
2021/05/21 05:40:12;;;;;;;1.53;0.70;;;;;;;18.03;51.20;97588.78;5012298;28;20209;-75
2021/05/21 05:42:39;;;;;;;3.80;0.70;;;;;;;18.30;50.49;97601.13;5013402;28;20300;-72
2021/05/21 05:45:07;;;;;;;1.47;0.60;;;;;;;17.95;51.26;97592.78;5021335;28;20451;-71
2021/05/21 05:47:34;;;;;;;0.90;0.53;;;;;;;18.22;51.44;97590.00;5012540;28;20482;-79
2021/05/21 05:50:00;;;;;;;2.40;0.80;;;;;;;17.98;52.51;97572.56;5013664;28;20254;-73
2021/05/21 05:52:27;;;;;;;5.77;2.57;;;;;;;18.37;51.31;97587.44;5010287;28;20249;-72
2021/05/21 05:54:54;;;;;;;3.33;1.00;;;;;;;18.66;49.43;97591.41;5012328;28;20257;-73
2021/05/21 05:57:22;;;;;;;1.07;0.90;;;;;;;18.63;50.71;97589.22;5012932;28;20219;-73
2021/05/21 05:59:49;;;;;;;2.47;0.80;;;;;;;18.68;50.11;97581.13;5009617;28;20217;-74
2021/05/21 06:02:17;;;;;;;2.27;0.60;;;;;;;18.90;49.53;97590.72;5019287;28;20268;-73
2021/05/21 06:04:44;;;;;;;3.33;0.90;;;;;;;19.35;47.86;97584.72;5012571;28;20207;-73
2021/05/21 06:07:10;;;;;;;2.30;0.77;;;;;;;19.25;47.43;97588.19;5017589;28;20291;-73
2021/05/21 06:09:37;;;;;;;2.60;0.77;;;;;;;19.25;49.08;97581.97;5024019;28;20296;-72
2021/05/21 06:12:05;;;;;;;1.90;1.10;;;;;;;19.27;46.93;97591.44;5033239;28;20206;-74
2021/05/21 06:14:33;;;;;;;2.53;0.67;;;;;;;19.66;45.81;97584.47;5024544;28;20209;-75
2021/05/21 06:17:00;;;;;;;3.20;0.87;;;;;;;19.97;44.37;97594.25;5016567;28;20360;-71
2021/05/21 06:19:26;;;;;;;3.97;0.90;;;;;;;20.37;43.87;97594.28;5018817;28;20286;-73
2021/05/21 06:21:53;;;;;;;1.47;0.70;;;;;;;19.57;46.58;97578.00;5017962;28;20256;-71
2021/05/21 06:24:20;;;;;;;2.17;0.73;;;;;;;19.47;46.41;97582.56;5018040;28;20680;-72
2021/05/21 06:29:28;;;;;;;1.07;0.60;;;;;;;19.90;45.58;97565.81;5019711;28;20202;-74
2021/05/21 06:31:56;;;;;;;0.70;0.60;;;;;;;20.64;43.05;97577.69;5008562;28;20215;-75
2021/05/21 06:34:23;;;;;;;2.73;0.70;;;;;;;19.67;46.80;97566.34;5010990;28;20210;-79
2021/05/21 06:36:49;;;;;;;2.90;0.80;;;;;;;19.64;45.27;97565.00;5011202;28;20241;-71
2021/05/21 06:39:16;;;;;;;1.63;0.80;;;;;;;19.63;46.43;97563.38;5011275;28;20573;-72
2021/05/21 06:41:43;;;;;;;1.23;1.03;;;;;;;18.83;49.42;97562.28;5010768;28;20203;-71
2021/05/21 06:44:13;;;;;;;2.30;0.70;;;;;;;19.09;49.66;97551.31;5014117;28;20213;-72
2021/05/21 06:46:40;;;;;;;1.70;0.70;;;;;;;20.05;45.30;97558.53;5013888;28;20322;-74
2021/05/21 06:49:11;;;;;;;17.03;1.80;;;;;;;19.59;46.71;97551.47;5013276;28;20621;-70
2021/05/21 06:51:38;;;;;;;2.10;0.73;;;;;;;20.15;46.65;97547.72;5012969;28;20215;-71
2021/05/21 06:54:06;;;;;;;1.73;0.70;;;;;;;19.69;47.75;97545.22;5013806;28;20208;-70
2021/05/21 06:56:35;;;;;;;2.20;0.70;;;;;;;20.45;43.94;97538.69;5012170;28;20254;-70
2021/05/21 06:59:03;;;;;;;2.37;0.70;;;;;;;20.36;44.67;97538.47;5012697;28;20208;-71
2021/05/21 07:01:30;;;;;;;1.47;0.67;;;;;;;20.11;47.19;97535.78;5011000;28;20203;-71
2021/05/21 07:03:57;;;;;;;2.17;0.60;;;;;;;20.31;45.92;97538.47;5013216;28;20210;-70
2021/05/21 07:06:24;;;;;;;0.83;0.50;;;;;;;20.26;43.74;97543.09;5013176;28;20227;-71
2021/05/21 07:08:51;;;;;;;2.73;0.70;;;;;;;20.93;42.05;97546.19;5014199;28;20210;-70
2021/05/21 07:11:18;;;;;;;2.47;0.70;;;;;;;20.26;45.38;97533.06;5013595;28;20204;-71
2021/05/21 07:13:45;;;;;;;1.20;0.70;;;;;;;20.60;43.75;97534.06;5012324;28;20232;-71
2021/05/21 07:16:12;;;;;;;1.80;0.70;;;;;;;20.25;45.52;97525.19;5009645;28;20228;-72
2021/05/21 07:18:39;;;;;;;2.43;0.57;;;;;;;21.19;42.51;97534.94;5014102;28;20216;-71
2021/05/21 07:21:05;;;;;;;1.80;0.60;;;;;;;20.49;44.08;97534.38;5013389;28;20205;-71
2021/05/21 07:23:33;;;;;;;2.57;0.70;;;;;;;20.30;45.68;97530.59;5013712;28;20238;-74
2021/05/21 07:26:00;;;;;;;0.63;0.53;;;;;;;20.44;44.83;97534.38;5012886;28;20640;-71
2021/05/21 07:28:27;;;;;;;1.70;0.70;;;;;;;20.08;46.65;97530.09;5012819;28;20208;-71
2021/05/21 07:30:54;;;;;;;1.27;0.63;;;;;;;20.88;42.58;97541.53;5013124;28;20231;-72
2021/05/21 07:33:21;;;;;;;1.57;0.67;;;;;;;19.68;46.14;97522.78;5011956;28;20262;-73
2021/05/21 07:35:48;;;;;;;1.07;0.60;;;;;;;20.01;45.42;97537.66;5010723;28;20707;-72
2021/05/21 07:38:15;;;;;;;1.30;0.70;;;;;;;19.93;46.64;97527.38;5013715;28;20204;-72
2021/05/21 07:40:43;;;;;;;2.93;0.70;;;;;;;19.96;46.27;97526.84;5012214;28;21934;-70
2021/05/21 07:43:10;;;;;;;1.63;0.60;;;;;;;20.54;44.11;97532.47;5011154;28;20207;-70
2021/05/21 07:45:36;;;;;;;3.87;0.67;;;;;;;20.53;45.07;97535.44;5012378;28;20658;-70
2021/05/21 07:48:04;;;;;;;1.27;0.63;;;;;;;20.35;45.00;97527.88;5012772;28;20330;-70
2021/05/21 07:50:36;;;;;;;1.70;0.70;;;;;;;20.00;45.46;97528.72;5013484;28;20217;-71
2021/05/21 07:53:03;;;;;;;1.43;0.60;;;;;;;20.32;44.46;97526.53;5012031;28;20219;-71
2021/05/21 07:55:30;;;;;;;4.10;0.90;;;;;;;20.40;43.65;97533.28;5010872;28;20323;-71
2021/05/21 07:57:57;;;;;;;2.43;0.60;;;;;;;20.80;42.56;97533.19;5008194;28;20224;-71
2021/05/21 08:00:24;;;;;;;1.30;0.70;;;;;;;20.19;45.34;97529.00;5011981;28;20200;-71
2021/05/21 08:02:51;;;;;;;0.73;0.70;;;;;;;19.58;47.61;97519.25;5009425;28;20210;-72
2021/05/21 08:05:18;;;;;;;2.47;1.03;;;;;;;20.58;44.86;97527.28;5011354;28;20569;-72
2021/05/21 08:07:45;;;;;;;3.50;1.13;;;;;;;20.66;42.96;97515.84;5010849;28;20317;-72
2021/05/21 08:10:13;;;;;;;3.13;0.60;;;;;;;20.47;42.84;97507.53;5011781;28;20204;-72
2021/05/21 08:12:40;;;;;;;1.93;0.70;;;;;;;20.88;42.06;97509.00;5011866;28;20234;-72
2021/05/21 08:15:09;;;;;;;1.30;0.90;;;;;;;21.20;41.42;97505.88;5008053;28;20208;-72
2021/05/21 08:17:35;;;;;;;2.50;0.90;;;;;;;20.77;42.89;97487.63;5012331;28;20318;-72
2021/05/21 08:20:03;;;;;;;1.33;0.83;;;;;;;20.49;42.75;97480.16;5011006;28;20575;-71
2021/05/21 08:22:30;;;;;;;2.00;0.70;;;;;;;20.72;43.26;97483.03;5011834;28;20617;-71
2021/05/21 08:24:56;;;;;;;9.93;1.20;;;;;;;20.47;45.37;97479.63;5009711;28;20566;-70
2021/05/21 08:27:23;;;;;;;4.00;1.00;;;;;;;20.18;46.83;97463.19;5010263;28;20227;-69
2021/05/21 08:29:50;;;;;;;1.30;0.70;;;;;;;19.69;47.18;97461.31;5011459;28;20569;-69
2021/05/21 08:32:18;;;;;;;2.33;0.77;;;;;;;20.92;42.59;97472.13;5011198;28;20369;-69
2021/05/21 08:34:45;;;;;;;1.93;0.70;;;;;;;21.27;42.00;97462.94;5009678;28;20212;-73
2021/05/21 08:37:11;;;;;;;2.23;0.70;;;;;;;20.65;43.02;97468.16;5010819;28;20718;-69
2021/05/21 08:39:39;;;;;;;1.13;0.50;;;;;;;21.08;43.08;97462.00;5011327;28;20230;-72
2021/05/21 08:42:08;;;;;;;1.67;0.70;;;;;;;21.23;43.58;97464.63;5012063;28;20291;-69
2021/05/21 08:44:37;;;;;;;37.73;6.43;;;;;;;20.69;44.06;97470.03;5010156;28;20204;-70
2021/05/21 08:47:04;;;;;;;6.50;2.23;;;;;;;20.49;46.16;97458.47;5011470;28;20231;-70
2021/05/21 08:49:32;;;;;;;5.23;1.10;;;;;;;19.60;46.51;97458.34;5010351;28;20243;-74
2021/05/21 08:52:00;;;;;;;1.20;0.70;;;;;;;19.29;49.04;97453.16;5010909;28;20675;-70
2021/05/21 08:54:34;;;;;;;2.53;0.93;;;;;;;20.58;47.08;97468.44;5010864;28;20250;-70
2021/05/21 08:57:04;;;;;;;1.30;0.80;;;;;;;20.10;47.56;97476.44;5010334;28;20309;-71
2021/05/21 08:59:31;;;;;;;1.43;0.60;;;;;;;19.81;46.58;97457.22;5010096;28;20297;-74
2021/05/21 09:01:58;;;;;;;4.33;0.90;;;;;;;20.37;46.11;97475.03;5011020;28;20211;-74
2021/05/21 09:04:25;;;;;;;3.37;0.90;;;;;;;20.49;44.83;97470.13;5016281;28;20287;-75
2021/05/21 09:06:53;;;;;;;2.63;0.80;;;;;;;20.53;45.34;97475.81;5016969;28;20247;-76
2021/05/21 09:09:21;;;;;;;4.20;0.73;;;;;;;20.63;43.53;97484.69;5020766;28;20740;-75
2021/05/21 09:11:48;;;;;;;1.90;0.90;;;;;;;20.64;43.24;97483.63;5014152;28;20656;-75
2021/05/21 09:14:17;;;;;;;1.60;0.80;;;;;;;21.07;43.32;97499.16;5008386;28;20246;-75
2021/05/21 09:16:46;;;;;;;3.37;0.67;;;;;;;20.30;43.31;97501.63;5016694;28;20605;-76
2021/05/21 09:19:14;;;;;;;5.70;1.00;;;;;;;20.85;44.40;97504.13;5012829;28;20211;-75
2021/05/21 09:21:53;;;;;;;8.03;2.70;;;;;;;20.91;43.28;97499.50;5012081;28;20671;-74
2021/05/21 09:24:23;;;;;;;0.97;0.50;;;;;;;19.63;46.11;97503.81;5007770;28;20209;-74
2021/05/21 09:26:51;;;;;;;2.83;0.60;;;;;;;20.28;45.12;97497.56;5012453;28;20752;-77
2021/05/21 09:29:36;;;;;;;2.47;0.77;;;;;;;20.26;44.85;97500.53;5013864;28;20251;-74
2021/05/21 09:32:25;;;;;;;4.17;1.60;;;;;;;20.37;45.26;97490.50;5011396;28;20665;-75
2021/05/21 09:35:11;;;;;;;3.00;0.70;;;;;;;20.64;44.11;97494.47;5011278;28;20214;-75
2021/05/21 09:37:44;;;;;;;2.00;0.80;;;;;;;20.26;45.57;97486.19;5020943;28;20288;-75
2021/05/21 09:40:14;;;;;;;1.90;0.50;;;;;;;20.29;44.70;97488.34;5012537;28;20204;-76
2021/05/21 09:42:52;;;;;;;0.97;0.50;;;;;;;20.38;44.67;97468.53;5014221;28;20688;-76
2021/05/21 09:45:25;;;;;;;1.47;0.80;;;;;;;21.00;43.16;97478.88;5008600;28;20262;-74
2021/05/21 09:47:54;;;;;;;1.07;0.70;;;;;;;20.47;44.70;97475.00;5003221;28;20781;-74
2021/05/21 09:50:33;;;;;;;5.07;0.77;;;;;;;20.60;44.00;97469.00;5016707;28;20674;-75
2021/05/21 09:53:04;;;;;;;0.90;0.67;;;;;;;20.32;44.91;97464.19;5014392;28;20539;-77
2021/05/21 09:55:34;;;;;;;1.23;0.70;;;;;;;20.93;44.63;97490.00;5022618;28;20208;-77
2021/05/21 09:58:01;;;;;;;1.60;0.57;;;;;;;20.39;45.79;97477.47;5018214;28;20301;-79
2021/05/21 10:00:28;;;;;;;7.40;0.70;;;;;;;20.58;45.42;97489.34;5014175;28;21487;-76
2021/05/21 10:02:56;;;;;;;1.57;0.60;;;;;;;20.39;44.19;97507.28;5015463;28;20203;-75
2021/05/21 10:05:23;;;;;;;3.07;0.60;;;;;;;20.46;44.86;97521.38;5014045;28;20204;-75
2021/05/21 10:07:52;;;;;;;1.67;0.60;;;;;;;19.68;47.01;97514.66;5017071;28;20430;-77
2021/05/21 10:10:23;;;;;;;1.67;0.50;;;15.10;1.00;;;19.44;48.02;97512.72;5017050;28;20199;-76
2021/05/21 10:12:50;;;;;;;3.17;0.67;;;15.00;1.00;;;19.48;48.71;97520.06;5010153;28;20207;-76
2021/05/21 10:15:17;;;;;;;1.00;0.60;;;15.00;1.00;;;19.89;47.15;97508.16;5007963;28;20215;-75
2021/05/21 10:17:45;;;;;;;4.40;0.70;;;14.90;1.00;;;19.71;48.01;97511.38;5015023;28;20308;-77
2021/05/21 10:20:14;;;;;;;1.10;0.60;;;14.90;1.00;;;19.76;48.04;97519.50;5012815;28;20212;-78
2021/05/21 10:22:42;;;;;;;0.93;0.40;;;14.90;1.00;;;19.79;48.70;97521.69;5014130;28;20671;-77
2021/05/21 10:25:15;;;;;;;0.87;0.60;;;14.90;1.00;;;19.99;47.09;97510.84;5011865;28;20199;-76
2021/05/21 10:27:46;;;;;;;0.60;0.50;;;14.90;1.00;;;20.31;47.32;97505.16;5014668;28;20306;-77
2021/05/21 10:30:15;;;;;;;1.03;0.50;;;15.00;1.00;;;20.19;47.66;97510.03;5013307;28;20215;-76
2021/05/21 10:32:42;;;;;;;2.00;0.67;;;15.00;1.00;;;20.29;47.79;97515.44;5027791;28;20233;-76
2021/05/21 10:35:19;;;;;;;0.90;0.90;;;15.00;1.00;;;20.25;47.52;97517.06;5013420;28;20206;-76
2021/05/21 10:37:47;;;;;;;0.73;0.60;;;15.10;1.00;;;20.31;48.31;97530.34;5027242;28;20589;-75
2021/05/21 10:40:24;;;;;;;0.67;0.57;;;15.00;1.00;;;20.44;47.71;97527.06;5031142;28;20211;-75
2021/05/21 10:42:52;;;;;;;0.90;0.70;;;15.10;1.00;;;20.85;47.07;97525.84;5017782;28;20262;-77
2021/05/21 10:45:21;;;;;;;1.33;0.47;;;15.10;1.00;;;20.82;46.54;97526.38;5022760;28;20201;-76
2021/05/21 10:47:57;;;;;;;1.07;0.50;;;15.20;1.00;;;20.55;47.92;97520.53;5026488;28;20246;-76
2021/05/21 10:50:23;;;;;;;0.93;0.70;;;15.30;1.00;;;20.84;47.53;97517.97;5022699;28;20323;-81
2021/05/21 10:52:54;;;;;;;1.00;0.70;;;15.40;1.00;;;20.62;47.99;97520.25;5025656;28;20290;-83
2021/05/21 10:55:49;;;;;;;1.60;0.70;;;15.40;1.00;;;21.10;47.13;97524.94;5023488;28;20290;-78
2021/05/21 10:58:29;;;;;;;1.47;0.80;;;15.40;1.00;;;21.07;46.67;97530.94;5020719;28;20310;-79
2021/05/21 11:01:29;;;;;;;0.53;0.50;;;15.50;1.00;;;21.26;46.60;97537.31;5022095;28;20226;-74
2021/05/21 11:04:09;;;;;;;0.97;0.60;;;15.70;1.00;;;21.67;45.97;97544.13;5016048;28;20208;-74
2021/05/21 11:06:51;;;;;;;1.57;0.57;;;15.90;1.00;;;21.69;46.17;97545.50;5012942;28;20228;-75
2021/05/21 11:09:21;;;;;;;2.70;0.60;;;16.00;1.00;;;21.81;45.51;97547.88;5020449;28;20208;-74
2021/05/21 11:12:07;;;;;;;1.27;0.50;;;16.10;1.00;;;21.12;46.76;97552.63;5015092;28;20284;-79
2021/05/21 11:14:41;;;;;;;1.00;0.70;;;15.90;1.00;;;21.22;46.73;97552.53;5011595;28;20254;-72
2021/05/21 11:17:23;;;;;;;0.87;0.63;;;15.90;1.00;;;21.37;47.04;97542.44;5012993;28;20225;-74
2021/05/21 11:19:55;;;;;;;2.37;0.60;;;15.90;1.00;;;21.51;46.20;97548.03;5020059;28;20208;-75
2021/05/21 11:22:35;;;;;;;2.63;0.90;;;16.10;1.00;;;21.83;44.73;97549.19;5017689;28;20205;-77
2021/05/21 11:25:15;;;;;;;0.70;0.60;;;16.20;1.00;;;21.89;44.47;97536.41;5022296;28;20268;-77
2021/05/21 11:27:42;;;;;;;1.60;0.63;;;16.30;1.00;;;21.98;44.42;97537.38;5016702;28;20227;-76
2021/05/21 11:30:14;;;;;;;1.20;0.40;;;16.40;1.00;;;22.09;44.58;97547.09;5015813;28;20208;-74
2021/05/21 11:32:41;;;;;;;1.57;0.50;;;16.60;1.00;;;22.61;42.17;97552.59;5017726;28;20224;-74
2021/05/21 11:35:10;;;;;;;1.20;0.40;;;16.70;1.00;;;22.98;41.44;97552.72;5009966;28;20618;-75